sensor_id;sensor_type;location;lat;lon;timestamp;pressure;altitude;pressure_sealevel;temperature;humidity
58753;BME280;44525;46.052;13.610;2023-02-22T00:01:09;101064.03;;;8.46;nan
58753;BME280;44525;46.052;13.610;2023-02-22T00:03:47;101057.31;;;8.54;nan
58753;BME280;44525;46.052;13.610;2023-02-22T00:06:15;101058.97;;;8.55;nan
58753;BME280;44525;46.052;13.610;2023-02-22T00:08:41;101055.34;;;8.22;nan
58753;BME280;44525;46.052;13.610;2023-02-22T00:11:07;101053.41;;;7.90;nan
58753;BME280;44525;46.052;13.610;2023-02-22T00:13:33;101059.91;;;7.72;nan
58753;BME280;44525;46.052;13.610;2023-02-22T00:15:59;101065.31;;;7.94;nan
58753;BME280;44525;46.052;13.610;2023-02-22T00:18:26;101057.72;;;7.91;nan
58753;BME280;44525;46.052;13.610;2023-02-22T00:20:53;101053.69;;;7.71;nan
58753;BME280;44525;46.052;13.610;2023-02-22T00:23:21;101052.78;;;7.83;nan
58753;BME280;44525;46.052;13.610;2023-02-22T00:25:48;101056.00;;;8.07;nan
58753;BME280;44525;46.052;13.610;2023-02-22T00:28:15;101049.78;;;8.06;nan
58753;BME280;44525;46.052;13.610;2023-02-22T00:30:41;101044.63;;;8.32;nan
58753;BME280;44525;46.052;13.610;2023-02-22T00:33:11;101055.50;;;8.10;nan
58753;BME280;44525;46.052;13.610;2023-02-22T00:35:37;101045.25;;;8.12;nan
58753;BME280;44525;46.052;13.610;2023-02-22T00:38:03;101044.41;;;8.12;nan
58753;BME280;44525;46.052;13.610;2023-02-22T00:40:31;101044.00;;;8.25;nan
58753;BME280;44525;46.052;13.610;2023-02-22T00:42:58;101048.31;;;8.21;nan
58753;BME280;44525;46.052;13.610;2023-02-22T00:45:26;101047.41;;;8.37;nan
58753;BME280;44525;46.052;13.610;2023-02-22T00:47:52;101036.31;;;8.39;nan
58753;BME280;44525;46.052;13.610;2023-02-22T00:50:20;101035.44;;;8.33;nan
58753;BME280;44525;46.052;13.610;2023-02-22T00:52:46;101042.34;;;8.19;nan
58753;BME280;44525;46.052;13.610;2023-02-22T00:55:17;101030.84;;;8.34;nan
58753;BME280;44525;46.052;13.610;2023-02-22T00:57:43;101037.34;;;8.33;nan
58753;BME280;44525;46.052;13.610;2023-02-22T01:00:56;101033.88;;;8.37;nan
58753;BME280;44525;46.052;13.610;2023-02-22T01:03:08;101037.97;;;8.18;nan
58753;BME280;44525;46.052;13.610;2023-02-22T01:05:35;101034.06;;;8.31;nan
58753;BME280;44525;46.052;13.610;2023-02-22T01:08:04;101034.03;;;8.25;nan
58753;BME280;44525;46.052;13.610;2023-02-22T01:10:31;101030.47;;;8.25;nan
58753;BME280;44525;46.052;13.610;2023-02-22T01:12:58;101032.66;;;8.28;nan
58753;BME280;44525;46.052;13.610;2023-02-22T01:15:25;101032.63;;;8.23;nan
58753;BME280;44525;46.052;13.610;2023-02-22T01:17:53;101030.44;;;8.20;nan
58753;BME280;44525;46.052;13.610;2023-02-22T01:20:20;101028.28;;;8.22;nan
58753;BME280;44525;46.052;13.610;2023-02-22T01:22:51;101030.97;;;8.17;nan
58753;BME280;44525;46.052;13.610;2023-02-22T01:25:22;101028.00;;;8.18;nan
58753;BME280;44525;46.052;13.610;2023-02-22T01:27:49;101025.66;;;8.27;nan
58753;BME280;44525;46.052;13.610;2023-02-22T01:30:18;101022.44;;;8.30;nan
58753;BME280;44525;46.052;13.610;2023-02-22T01:32:44;101019.53;;;8.10;nan
58753;BME280;44525;46.052;13.610;2023-02-22T01:35:14;101021.72;;;8.13;nan
58753;BME280;44525;46.052;13.610;2023-02-22T01:37:40;101023.03;;;8.10;nan
58753;BME280;44525;46.052;13.610;2023-02-22T01:40:08;101022.63;;;7.96;nan
58753;BME280;44525;46.052;13.610;2023-02-22T01:42:35;101017.59;;;8.05;nan
58753;BME280;44525;46.052;13.610;2023-02-22T01:48:07;101010.75;;;7.97;nan
58753;BME280;44525;46.052;13.610;2023-02-22T01:51:03;101008.28;;;7.73;nan
58753;BME280;44525;46.052;13.610;2023-02-22T01:53:43;100998.78;;;7.93;nan
58753;BME280;44525;46.052;13.610;2023-02-22T01:56:10;100998.94;;;8.08;nan
58753;BME280;44525;46.052;13.610;2023-02-22T01:58:37;100990.53;;;8.05;nan
58753;BME280;44525;46.052;13.610;2023-02-22T02:01:06;100991.03;;;8.02;nan
58753;BME280;44525;46.052;13.610;2023-02-22T02:03:33;100993.59;;;8.14;nan
58753;BME280;44525;46.052;13.610;2023-02-22T02:06:02;100989.59;;;8.21;nan
58753;BME280;44525;46.052;13.610;2023-02-22T02:11:07;100987.25;;;8.03;nan
58753;BME280;44525;46.052;13.610;2023-02-22T02:13:34;100986.19;;;8.04;nan
58753;BME280;44525;46.052;13.610;2023-02-22T02:16:00;100981.69;;;7.87;nan
58753;BME280;44525;46.052;13.610;2023-02-22T02:18:26;100985.44;;;7.59;nan
58753;BME280;44525;46.052;13.610;2023-02-22T02:31:33;100978.22;;;7.92;nan
58753;BME280;44525;46.052;13.610;2023-02-22T02:34:22;100975.63;;;8.02;nan
58753;BME280;44525;46.052;13.610;2023-02-22T02:37:15;100971.28;;;8.01;nan
58753;BME280;44525;46.052;13.610;2023-02-22T02:40:11;100968.97;;;7.88;nan
58753;BME280;44525;46.052;13.610;2023-02-22T02:43:06;100965.09;;;7.79;nan
58753;BME280;44525;46.052;13.610;2023-02-22T02:48:34;100957.84;;;8.12;nan
58753;BME280;44525;46.052;13.610;2023-02-22T02:51:04;100956.28;;;8.16;nan
58753;BME280;44525;46.052;13.610;2023-02-22T02:53:34;100959.59;;;7.96;nan
58753;BME280;44525;46.052;13.610;2023-02-22T02:56:01;100954.06;;;8.13;nan
58753;BME280;44525;46.052;13.610;2023-02-22T02:58:26;100962.00;;;7.92;nan
58753;BME280;44525;46.052;13.610;2023-02-22T03:00:54;100960.59;;;7.89;nan
58753;BME280;44525;46.052;13.610;2023-02-22T03:08:50;100953.59;;;7.88;nan
58753;BME280;44525;46.052;13.610;2023-02-22T03:11:20;100945.91;;;7.80;nan
58753;BME280;44525;46.052;13.610;2023-02-22T03:13:54;100936.06;;;7.96;nan
58753;BME280;44525;46.052;13.610;2023-02-22T03:16:33;100945.72;;;7.87;nan
58753;BME280;44525;46.052;13.610;2023-02-22T03:26:01;100943.56;;;7.89;nan
58753;BME280;44525;46.052;13.610;2023-02-22T03:28:28;100943.72;;;8.04;nan
58753;BME280;44525;46.052;13.610;2023-02-22T03:31:00;100942.66;;;8.05;nan
58753;BME280;44525;46.052;13.610;2023-02-22T03:33:38;100941.94;;;7.88;nan
58753;BME280;44525;46.052;13.610;2023-02-22T03:36:12;100944.81;;;8.03;nan
58753;BME280;44525;46.052;13.610;2023-02-22T03:38:41;100937.63;;;7.87;nan
58753;BME280;44525;46.052;13.610;2023-02-22T03:41:08;100936.50;;;7.83;nan
58753;BME280;44525;46.052;13.610;2023-02-22T03:43:45;100932.66;;;7.79;nan
58753;BME280;44525;46.052;13.610;2023-02-22T03:46:13;100940.63;;;7.90;nan
58753;BME280;44525;46.052;13.610;2023-02-22T03:48:53;100937.56;;;7.82;nan
58753;BME280;44525;46.052;13.610;2023-02-22T03:51:24;100941.28;;;7.76;nan
58753;BME280;44525;46.052;13.610;2023-02-22T03:53:50;100936.06;;;7.69;nan
58753;BME280;44525;46.052;13.610;2023-02-22T03:56:21;100934.22;;;7.75;nan
58753;BME280;44525;46.052;13.610;2023-02-22T03:58:48;100940.00;;;7.56;nan
58753;BME280;44525;46.052;13.610;2023-02-22T04:01:15;100939.13;;;7.28;nan
58753;BME280;44525;46.052;13.610;2023-02-22T04:03:41;100946.66;;;7.48;nan
58753;BME280;44525;46.052;13.610;2023-02-22T04:06:07;100945.72;;;7.37;nan
58753;BME280;44525;46.052;13.610;2023-02-22T04:08:32;100943.66;;;7.45;nan
58753;BME280;44525;46.052;13.610;2023-02-22T04:10:58;100942.50;;;7.41;nan
58753;BME280;44525;46.052;13.610;2023-02-22T04:13:23;100949.22;;;7.38;nan
58753;BME280;44525;46.052;13.610;2023-02-22T04:15:48;100940.94;;;7.45;nan
58753;BME280;44525;46.052;13.610;2023-02-22T04:18:14;100944.31;;;7.57;nan
58753;BME280;44525;46.052;13.610;2023-02-22T04:20:39;100938.13;;;7.34;nan
58753;BME280;44525;46.052;13.610;2023-02-22T04:23:05;100941.19;;;7.43;nan
58753;BME280;44525;46.052;13.610;2023-02-22T04:25:30;100937.34;;;7.17;nan
58753;BME280;44525;46.052;13.610;2023-02-22T04:27:56;100939.94;;;7.07;nan
58753;BME280;44525;46.052;13.610;2023-02-22T04:30:21;100943.25;;;7.14;nan
58753;BME280;44525;46.052;13.610;2023-02-22T04:32:47;100938.41;;;7.16;nan
58753;BME280;44525;46.052;13.610;2023-02-22T04:35:13;100943.00;;;7.15;nan
58753;BME280;44525;46.052;13.610;2023-02-22T04:37:39;100934.09;;;7.15;nan
58753;BME280;44525;46.052;13.610;2023-02-22T04:40:05;100938.88;;;7.08;nan
58753;BME280;44525;46.052;13.610;2023-02-22T04:42:36;100940.66;;;7.19;nan
58753;BME280;44525;46.052;13.610;2023-02-22T04:45:03;100934.63;;;6.95;nan
58753;BME280;44525;46.052;13.610;2023-02-22T04:47:29;100939.28;;;6.99;nan
58753;BME280;44525;46.052;13.610;2023-02-22T04:49:55;100944.97;;;7.20;nan
58753;BME280;44525;46.052;13.610;2023-02-22T04:52:20;100943.19;;;6.87;nan
58753;BME280;44525;46.052;13.610;2023-02-22T04:54:46;100941.22;;;7.04;nan
58753;BME280;44525;46.052;13.610;2023-02-22T04:57:11;100942.56;;;7.01;nan
58753;BME280;44525;46.052;13.610;2023-02-22T04:59:37;100946.72;;;7.09;nan
58753;BME280;44525;46.052;13.610;2023-02-22T05:02:02;100945.28;;;7.01;nan
58753;BME280;44525;46.052;13.610;2023-02-22T05:04:27;100943.94;;;7.04;nan
58753;BME280;44525;46.052;13.610;2023-02-22T05:06:53;100942.38;;;7.08;nan
58753;BME280;44525;46.052;13.610;2023-02-22T05:09:19;100937.22;;;7.07;nan
58753;BME280;44525;46.052;13.610;2023-02-22T05:11:44;100931.03;;;7.06;nan
58753;BME280;44525;46.052;13.610;2023-02-22T05:14:10;100944.63;;;6.94;nan
58753;BME280;44525;46.052;13.610;2023-02-22T05:16:35;100941.34;;;6.92;nan
58753;BME280;44525;46.052;13.610;2023-02-22T05:19:01;100947.00;;;6.91;nan
58753;BME280;44525;46.052;13.610;2023-02-22T05:21:26;100946.13;;;6.85;nan
58753;BME280;44525;46.052;13.610;2023-02-22T05:23:52;100948.38;;;6.93;nan
58753;BME280;44525;46.052;13.610;2023-02-22T05:26:17;100945.38;;;6.90;nan
58753;BME280;44525;46.052;13.610;2023-02-22T05:28:43;100944.19;;;6.63;nan
58753;BME280;44525;46.052;13.610;2023-02-22T05:31:08;100950.38;;;6.81;nan
58753;BME280;44525;46.052;13.610;2023-02-22T05:33:34;100944.41;;;6.79;nan
58753;BME280;44525;46.052;13.610;2023-02-22T05:35:59;100951.84;;;6.72;nan
58753;BME280;44525;46.052;13.610;2023-02-22T05:38:24;100951.63;;;6.73;nan
58753;BME280;44525;46.052;13.610;2023-02-22T05:40:50;100948.53;;;6.64;nan
58753;BME280;44525;46.052;13.610;2023-02-22T05:43:15;100952.09;;;6.70;nan
58753;BME280;44525;46.052;13.610;2023-02-22T05:45:41;100950.78;;;6.73;nan
58753;BME280;44525;46.052;13.610;2023-02-22T05:48:07;100952.53;;;6.62;nan
58753;BME280;44525;46.052;13.610;2023-02-22T05:50:33;100956.47;;;6.54;nan
58753;BME280;44525;46.052;13.610;2023-02-22T05:52:59;100953.03;;;6.42;nan
58753;BME280;44525;46.052;13.610;2023-02-22T05:55:24;100956.78;;;6.58;nan
58753;BME280;44525;46.052;13.610;2023-02-22T05:57:50;100959.72;;;6.56;nan
58753;BME280;44525;46.052;13.610;2023-02-22T06:00:22;100967.56;;;6.24;nan
58753;BME280;44525;46.052;13.610;2023-02-22T06:03:00;100956.47;;;6.37;nan
58753;BME280;44525;46.052;13.610;2023-02-22T06:05:27;100966.44;;;6.54;nan
58753;BME280;44525;46.052;13.610;2023-02-22T06:07:53;100962.50;;;6.44;nan
58753;BME280;44525;46.052;13.610;2023-02-22T06:10:20;100970.13;;;6.64;nan
58753;BME280;44525;46.052;13.610;2023-02-22T06:12:46;100975.19;;;6.78;nan
58753;BME280;44525;46.052;13.610;2023-02-22T06:15:14;100974.78;;;6.69;nan
58753;BME280;44525;46.052;13.610;2023-02-22T06:17:39;100976.72;;;6.74;nan
58753;BME280;44525;46.052;13.610;2023-02-22T06:20:07;100976.25;;;6.77;nan
58753;BME280;44525;46.052;13.610;2023-02-22T06:22:33;100970.69;;;6.49;nan
58753;BME280;44525;46.052;13.610;2023-02-22T06:25:01;100971.66;;;6.43;nan
58753;BME280;44525;46.052;13.610;2023-02-22T06:27:30;100973.94;;;6.68;nan
58753;BME280;44525;46.052;13.610;2023-02-22T06:29:55;100984.09;;;6.61;nan
58753;BME280;44525;46.052;13.610;2023-02-22T06:32:20;100980.25;;;6.74;nan
58753;BME280;44525;46.052;13.610;2023-02-22T06:34:46;100985.75;;;6.45;nan
58753;BME280;44525;46.052;13.610;2023-02-22T06:37:12;100980.97;;;6.70;nan
58753;BME280;44525;46.052;13.610;2023-02-22T06:39:38;100990.78;;;6.93;nan
58753;BME280;44525;46.052;13.610;2023-02-22T06:42:03;100987.50;;;6.91;nan
58753;BME280;44525;46.052;13.610;2023-02-22T06:44:29;100993.75;;;6.91;nan
58753;BME280;44525;46.052;13.610;2023-02-22T06:46:54;100998.84;;;7.10;nan
58753;BME280;44525;46.052;13.610;2023-02-22T06:49:20;100992.38;;;7.11;nan
58753;BME280;44525;46.052;13.610;2023-02-22T06:51:46;100999.13;;;7.30;nan
58753;BME280;44525;46.052;13.610;2023-02-22T06:54:12;101004.09;;;7.16;nan
58753;BME280;44525;46.052;13.610;2023-02-22T06:56:37;100995.28;;;7.26;nan
58753;BME280;44525;46.052;13.610;2023-02-22T06:59:03;100998.47;;;7.23;nan
58753;BME280;44525;46.052;13.610;2023-02-22T07:01:28;101001.44;;;7.44;nan
58753;BME280;44525;46.052;13.610;2023-02-22T07:03:54;101001.16;;;7.62;nan
58753;BME280;44525;46.052;13.610;2023-02-22T07:06:19;101000.25;;;7.79;nan
58753;BME280;44525;46.052;13.610;2023-02-22T07:08:45;100991.31;;;8.00;nan
58753;BME280;44525;46.052;13.610;2023-02-22T07:11:10;100994.91;;;8.11;nan
58753;BME280;44525;46.052;13.610;2023-02-22T07:13:36;100989.22;;;8.07;nan
58753;BME280;44525;46.052;13.610;2023-02-22T07:16:01;100997.97;;;8.20;nan
58753;BME280;44525;46.052;13.610;2023-02-22T07:18:27;100994.41;;;8.41;nan
58753;BME280;44525;46.052;13.610;2023-02-22T07:20:52;100994.34;;;8.69;nan
58753;BME280;44525;46.052;13.610;2023-02-22T07:23:18;100988.41;;;9.09;nan
58753;BME280;44525;46.052;13.610;2023-02-22T07:25:44;101002.41;;;9.49;nan
58753;BME280;44525;46.052;13.610;2023-02-22T07:28:10;100993.00;;;9.72;nan
58753;BME280;44525;46.052;13.610;2023-02-22T07:30:36;100990.09;;;9.99;nan
58753;BME280;44525;46.052;13.610;2023-02-22T07:33:04;100994.47;;;10.21;nan
58753;BME280;44525;46.052;13.610;2023-02-22T07:35:49;100988.53;;;10.45;nan
58753;BME280;44525;46.052;13.610;2023-02-22T07:38:16;100995.06;;;10.33;nan
58753;BME280;44525;46.052;13.610;2023-02-22T07:40:42;100988.22;;;10.26;nan
58753;BME280;44525;46.052;13.610;2023-02-22T07:43:15;100980.66;;;10.43;nan
58753;BME280;44525;46.052;13.610;2023-02-22T07:45:42;100982.81;;;10.77;nan
58753;BME280;44525;46.052;13.610;2023-02-22T07:48:08;100980.38;;;10.81;nan
58753;BME280;44525;46.052;13.610;2023-02-22T07:50:34;100976.22;;;11.09;nan
58753;BME280;44525;46.052;13.610;2023-02-22T07:53:05;100970.88;;;11.59;nan
58753;BME280;44525;46.052;13.610;2023-02-22T07:55:32;100971.50;;;11.96;nan
58753;BME280;44525;46.052;13.610;2023-02-22T07:58:00;100971.59;;;12.25;nan
58753;BME280;44525;46.052;13.610;2023-02-22T08:00:29;100962.72;;;12.43;nan
58753;BME280;44525;46.052;13.610;2023-02-22T08:02:55;100968.50;;;12.66;nan
58753;BME280;44525;46.052;13.610;2023-02-22T08:05:22;100965.47;;;12.73;nan
58753;BME280;44525;46.052;13.610;2023-02-22T08:07:48;100965.13;;;13.52;nan
58753;BME280;44525;46.052;13.610;2023-02-22T08:10:15;100961.22;;;13.39;nan
58753;BME280;44525;46.052;13.610;2023-02-22T08:12:40;100963.81;;;14.07;nan
58753;BME280;44525;46.052;13.610;2023-02-22T08:15:08;100955.06;;;13.91;nan
58753;BME280;44525;46.052;13.610;2023-02-22T08:17:34;100945.22;;;14.28;nan
58753;BME280;44525;46.052;13.610;2023-02-22T08:19:59;100940.22;;;14.49;nan
58753;BME280;44525;46.052;13.610;2023-02-22T08:22:25;100948.91;;;14.18;nan
58753;BME280;44525;46.052;13.610;2023-02-22T08:24:53;100932.91;;;14.77;nan
58753;BME280;44525;46.052;13.610;2023-02-22T08:27:26;100941.41;;;14.76;nan
58753;BME280;44525;46.052;13.610;2023-02-22T08:29:52;100939.38;;;14.81;nan
58753;BME280;44525;46.052;13.610;2023-02-22T08:32:19;100938.38;;;15.19;nan
58753;BME280;44525;46.052;13.610;2023-02-22T08:34:45;100942.59;;;15.53;nan
58753;BME280;44525;46.052;13.610;2023-02-22T08:37:10;100935.66;;;15.69;nan
58753;BME280;44525;46.052;13.610;2023-02-22T08:39:36;100939.91;;;15.75;nan
58753;BME280;44525;46.052;13.610;2023-02-22T08:42:01;100943.75;;;15.24;nan
58753;BME280;44525;46.052;13.610;2023-02-22T08:44:27;100939.06;;;14.97;nan
58753;BME280;44525;46.052;13.610;2023-02-22T08:46:52;100935.38;;;14.60;nan
58753;BME280;44525;46.052;13.610;2023-02-22T08:49:18;100939.09;;;14.17;nan
58753;BME280;44525;46.052;13.610;2023-02-22T08:51:44;100937.81;;;13.76;nan
58753;BME280;44525;46.052;13.610;2023-02-22T08:54:10;100943.16;;;13.43;nan
58753;BME280;44525;46.052;13.610;2023-02-22T08:56:35;100945.16;;;12.84;nan
58753;BME280;44525;46.052;13.610;2023-02-22T08:59:00;100947.03;;;12.89;nan
58753;BME280;44525;46.052;13.610;2023-02-22T09:01:26;100941.69;;;13.27;nan
58753;BME280;44525;46.052;13.610;2023-02-22T09:03:53;100944.06;;;13.77;nan
58753;BME280;44525;46.052;13.610;2023-02-22T09:06:20;100946.19;;;13.99;nan
58753;BME280;44525;46.052;13.610;2023-02-22T09:08:46;100954.38;;;14.51;nan
58753;BME280;44525;46.052;13.610;2023-02-22T09:11:11;100947.81;;;14.52;nan
58753;BME280;44525;46.052;13.610;2023-02-22T09:13:37;100943.81;;;14.63;nan
58753;BME280;44525;46.052;13.610;2023-02-22T09:16:02;100941.13;;;15.05;nan
58753;BME280;44525;46.052;13.610;2023-02-22T09:18:28;100938.00;;;16.12;nan
58753;BME280;44525;46.052;13.610;2023-02-22T09:20:53;100935.53;;;15.88;nan
58753;BME280;44525;46.052;13.610;2023-02-22T09:23:19;100934.19;;;16.00;nan
58753;BME280;44525;46.052;13.610;2023-02-22T09:25:48;100938.72;;;16.04;nan
58753;BME280;44525;46.052;13.610;2023-02-22T09:28:14;100931.50;;;15.86;nan
58753;BME280;44525;46.052;13.610;2023-02-22T09:30:39;100932.63;;;14.93;nan
58753;BME280;44525;46.052;13.610;2023-02-22T09:33:11;100932.34;;;14.28;nan
58753;BME280;44525;46.052;13.610;2023-02-22T09:35:38;100932.34;;;13.95;nan
58753;BME280;44525;46.052;13.610;2023-02-22T09:38:07;100918.53;;;13.67;nan
58753;BME280;44525;46.052;13.610;2023-02-22T09:40:36;100925.69;;;13.63;nan
58753;BME280;44525;46.052;13.610;2023-02-22T09:43:26;100934.00;;;13.34;nan
58753;BME280;44525;46.052;13.610;2023-02-22T09:54:25;100921.09;;;12.91;nan
58753;BME280;44525;46.052;13.610;2023-02-22T09:56:55;100910.59;;;12.79;nan
58753;BME280;44525;46.052;13.610;2023-02-22T09:59:27;100913.69;;;12.97;nan
58753;BME280;44525;46.052;13.610;2023-02-22T10:02:04;100912.63;;;13.17;nan
58753;BME280;44525;46.052;13.610;2023-02-22T10:04:46;100912.06;;;13.20;nan
58753;BME280;44525;46.052;13.610;2023-02-22T10:09:43;100900.81;;;13.46;nan
58753;BME280;44525;46.052;13.610;2023-02-22T10:12:17;100899.47;;;13.24;nan
58753;BME280;44525;46.052;13.610;2023-02-22T10:14:51;100892.09;;;13.25;nan
58753;BME280;44525;46.052;13.610;2023-02-22T10:20:25;100895.50;;;13.36;nan
58753;BME280;44525;46.052;13.610;2023-02-22T10:23:02;100890.72;;;13.65;nan
58753;BME280;44525;46.052;13.610;2023-02-22T10:25:30;100895.66;;;14.01;nan
58753;BME280;44525;46.052;13.610;2023-02-22T10:28:22;100891.41;;;14.09;nan
58753;BME280;44525;46.052;13.610;2023-02-22T10:30:52;100877.72;;;13.95;nan
58753;BME280;44525;46.052;13.610;2023-02-22T10:33:35;100885.97;;;14.23;nan
58753;BME280;44525;46.052;13.610;2023-02-22T10:36:02;100883.53;;;14.08;nan
58753;BME280;44525;46.052;13.610;2023-02-22T10:38:29;100882.59;;;14.45;nan
58753;BME280;44525;46.052;13.610;2023-02-22T10:41:00;100875.16;;;14.79;nan
58753;BME280;44525;46.052;13.610;2023-02-22T10:43:27;100875.97;;;15.21;nan
58753;BME280;44525;46.052;13.610;2023-02-22T10:45:59;100870.94;;;15.51;nan
58753;BME280;44525;46.052;13.610;2023-02-22T10:48:28;100866.75;;;15.53;nan
58753;BME280;44525;46.052;13.610;2023-02-22T10:51:00;100862.84;;;15.68;nan
58753;BME280;44525;46.052;13.610;2023-02-22T10:53:27;100858.00;;;15.65;nan
58753;BME280;44525;46.052;13.610;2023-02-22T10:56:12;100858.56;;;15.76;nan
58753;BME280;44525;46.052;13.610;2023-02-22T10:58:51;100858.78;;;15.79;nan
58753;BME280;44525;46.052;13.610;2023-02-22T11:01:23;100847.25;;;16.14;nan
58753;BME280;44525;46.052;13.610;2023-02-22T11:06:29;100842.91;;;15.90;nan
58753;BME280;44525;46.052;13.610;2023-02-22T11:09:12;100837.22;;;15.87;nan
58753;BME280;44525;46.052;13.610;2023-02-22T11:11:43;100836.00;;;15.93;nan
58753;BME280;44525;46.052;13.610;2023-02-22T11:14:10;100829.38;;;15.71;nan
58753;BME280;44525;46.052;13.610;2023-02-22T11:16:45;100823.84;;;15.85;nan
58753;BME280;44525;46.052;13.610;2023-02-22T11:19:20;100824.00;;;15.80;nan
58753;BME280;44525;46.052;13.610;2023-02-22T11:21:49;100816.78;;;15.84;nan
58753;BME280;44525;46.052;13.610;2023-02-22T11:24:16;100797.56;;;15.61;nan
58753;BME280;44525;46.052;13.610;2023-02-22T11:26:45;100810.88;;;15.54;nan
58753;BME280;44525;46.052;13.610;2023-02-22T11:29:26;100798.41;;;15.85;nan
58753;BME280;44525;46.052;13.610;2023-02-22T11:31:53;100792.44;;;15.83;nan
58753;BME280;44525;46.052;13.610;2023-02-22T11:34:34;100779.09;;;15.67;nan
58753;BME280;44525;46.052;13.610;2023-02-22T11:39:48;100783.13;;;15.47;nan
58753;BME280;44525;46.052;13.610;2023-02-22T11:42:28;100768.88;;;15.36;nan
58753;BME280;44525;46.052;13.610;2023-02-22T11:47:35;100775.97;;;15.15;nan
58753;BME280;44525;46.052;13.610;2023-02-22T11:50:17;100767.94;;;15.18;nan
58753;BME280;44525;46.052;13.610;2023-02-22T11:52:48;100768.47;;;15.43;nan
58753;BME280;44525;46.052;13.610;2023-02-22T12:06:50;100748.25;;;16.56;nan
58753;BME280;44525;46.052;13.610;2023-02-22T12:09:18;100749.91;;;16.74;nan
58753;BME280;44525;46.052;13.610;2023-02-22T12:12:06;100751.56;;;16.93;nan
58753;BME280;44525;46.052;13.610;2023-02-22T12:17:48;100741.66;;;16.65;nan
58753;BME280;44525;46.052;13.610;2023-02-22T12:20:20;100746.47;;;16.51;nan
58753;BME280;44525;46.052;13.610;2023-02-22T12:22:58;100738.59;;;16.67;nan
58753;BME280;44525;46.052;13.610;2023-02-22T12:25:31;100736.25;;;17.09;nan
58753;BME280;44525;46.052;13.610;2023-02-22T12:28:06;100740.06;;;16.73;nan
58753;BME280;44525;46.052;13.610;2023-02-22T12:30:38;100744.72;;;16.64;nan
58753;BME280;44525;46.052;13.610;2023-02-22T12:33:12;100733.94;;;16.76;nan
58753;BME280;44525;46.052;13.610;2023-02-22T12:35:42;100734.78;;;17.03;nan
58753;BME280;44525;46.052;13.610;2023-02-22T12:38:17;100731.72;;;17.13;nan
58753;BME280;44525;46.052;13.610;2023-02-22T12:40:54;100718.78;;;17.31;nan
58753;BME280;44525;46.052;13.610;2023-02-22T12:43:47;100714.53;;;17.69;nan
58753;BME280;44525;46.052;13.610;2023-02-22T12:46:39;100707.50;;;17.98;nan
58753;BME280;44525;46.052;13.610;2023-02-22T12:55:23;100701.28;;;18.18;nan
58753;BME280;44525;46.052;13.610;2023-02-22T13:03:08;100692.97;;;17.88;nan
58753;BME280;44525;46.052;13.610;2023-02-22T13:05:43;100694.94;;;17.79;nan
58753;BME280;44525;46.052;13.610;2023-02-22T13:11:09;100682.94;;;18.31;nan
58753;BME280;44525;46.052;13.610;2023-02-22T13:21:46;100666.06;;;18.63;nan
58753;BME280;44525;46.052;13.610;2023-02-22T13:24:23;100666.34;;;18.70;nan
58753;BME280;44525;46.052;13.610;2023-02-22T13:27:00;100668.22;;;18.78;nan
58753;BME280;44525;46.052;13.610;2023-02-22T13:29:36;100663.63;;;18.82;nan
58753;BME280;44525;46.052;13.610;2023-02-22T13:35:16;100649.56;;;18.63;nan
58753;BME280;44525;46.052;13.610;2023-02-22T13:43:35;100659.75;;;18.41;nan
58753;BME280;44525;46.052;13.610;2023-02-22T13:54:38;100653.19;;;18.54;nan
58753;BME280;44525;46.052;13.610;2023-02-22T13:57:24;100644.59;;;18.56;nan
58753;BME280;44525;46.052;13.610;2023-02-22T14:10:49;65501.63;;;-149.14;100.00
58753;BME280;44525;46.052;13.610;2023-02-22T14:13:19;65501.63;;;-149.14;100.00
58753;BME280;44525;46.052;13.610;2023-02-22T14:18:25;65501.63;;;-149.14;100.00
58753;BME280;44525;46.052;13.610;2023-02-22T14:21:09;65501.63;;;-149.14;100.00
58753;BME280;44525;46.052;13.610;2023-02-22T14:28:52;65501.63;;;-149.14;100.00
58753;BME280;44525;46.052;13.610;2023-02-22T14:34:10;65501.63;;;-149.14;100.00
58753;BME280;44525;46.052;13.610;2023-02-22T14:36:58;65501.63;;;-149.14;100.00
58753;BME280;44525;46.052;13.610;2023-02-22T14:39:38;65501.63;;;-149.14;100.00
58753;BME280;44525;46.052;13.610;2023-02-22T14:44:58;65501.63;;;-149.14;100.00
58753;BME280;44525;46.052;13.610;2023-02-22T14:47:31;65501.63;;;-149.14;100.00
58753;BME280;44525;46.052;13.610;2023-02-22T14:50:13;65501.63;;;-149.14;100.00
58753;BME280;44525;46.052;13.610;2023-02-22T14:52:42;65501.63;;;-149.14;100.00
58753;BME280;44525;46.052;13.610;2023-02-22T14:55:13;65501.63;;;-149.14;100.00
58753;BME280;44525;46.052;13.610;2023-02-22T14:57:48;65501.63;;;-149.14;100.00
58753;BME280;44525;46.052;13.610;2023-02-22T15:00:23;65501.63;;;-149.14;100.00
58753;BME280;44525;46.052;13.610;2023-02-22T15:02:56;65501.63;;;-149.14;100.00
58753;BME280;44525;46.052;13.610;2023-02-22T15:05:24;65501.63;;;-149.14;100.00
58753;BME280;44525;46.052;13.610;2023-02-22T15:08:03;65501.63;;;-149.14;100.00
58753;BME280;44525;46.052;13.610;2023-02-22T15:13:03;65501.63;;;-149.14;100.00
58753;BME280;44525;46.052;13.610;2023-02-22T15:15:38;65501.63;;;-149.14;100.00
58753;BME280;44525;46.052;13.610;2023-02-22T15:18:15;65501.63;;;-149.14;100.00
58753;BME280;44525;46.052;13.610;2023-02-22T15:20:42;65501.63;;;-149.14;100.00
58753;BME280;44525;46.052;13.610;2023-02-22T15:23:07;65501.63;;;-149.14;100.00
58753;BME280;44525;46.052;13.610;2023-02-22T15:25:32;65501.63;;;-149.14;100.00
58753;BME280;44525;46.052;13.610;2023-02-22T15:28:00;65501.63;;;-149.14;100.00
58753;BME280;44525;46.052;13.610;2023-02-22T15:30:28;65501.63;;;-149.14;100.00